sensor_id;sensor_type;location;lat;lon;timestamp;P1;durP1;ratioP1;P2;durP2;ratioP2
79204;SDS011;68632;47.512;19.104;2024-01-30T00:00:00;58.90;;;30.92;;
79204;SDS011;68632;47.512;19.104;2024-01-30T00:01:02;58.22;;;35.33;;
79204;SDS011;68632;47.512;19.104;2024-01-30T00:02:04;56.50;;;31.08;;
79204;SDS011;68632;47.512;19.104;2024-01-30T00:03:07;58.92;;;34.72;;
79204;SDS011;68632;47.512;19.104;2024-01-30T00:04:09;57.70;;;29.20;;
79204;SDS011;68632;47.512;19.104;2024-01-30T00:05:11;57.38;;;31.63;;
79204;SDS011;68632;47.512;19.104;2024-01-30T00:06:14;54.17;;;31.10;;
79204;SDS011;68632;47.512;19.104;2024-01-30T00:07:16;58.28;;;31.65;;
79204;SDS011;68632;47.512;19.104;2024-01-30T00:08:18;58.08;;;32.45;;
79204;SDS011;68632;47.512;19.104;2024-01-30T00:09:21;58.13;;;34.08;;
79204;SDS011;68632;47.512;19.104;2024-01-30T00:10:23;58.15;;;31.77;;
79204;SDS011;68632;47.512;19.104;2024-01-30T00:11:25;55.88;;;30.15;;
79204;SDS011;68632;47.512;19.104;2024-01-30T00:12:28;60.70;;;31.80;;
79204;SDS011;68632;47.512;19.104;2024-01-30T00:13:30;55.92;;;31.45;;
79204;SDS011;68632;47.512;19.104;2024-01-30T00:14:32;59.88;;;31.08;;
79204;SDS011;68632;47.512;19.104;2024-01-30T00:15:34;57.58;;;31.02;;
79204;SDS011;68632;47.512;19.104;2024-01-30T00:16:37;59.03;;;31.42;;
79204;SDS011;68632;47.512;19.104;2024-01-30T00:17:39;57.67;;;29.95;;
79204;SDS011;68632;47.512;19.104;2024-01-30T00:18:41;58.05;;;30.48;;
79204;SDS011;68632;47.512;19.104;2024-01-30T00:19:44;52.85;;;30.50;;
79204;SDS011;68632;47.512;19.104;2024-01-30T00:20:46;61.63;;;31.15;;
79204;SDS011;68632;47.512;19.104;2024-01-30T00:21:48;55.70;;;30.92;;
79204;SDS011;68632;47.512;19.104;2024-01-30T00:22:51;58.72;;;32.45;;
79204;SDS011;68632;47.512;19.104;2024-01-30T00:23:53;58.42;;;30.95;;
79204;SDS011;68632;47.512;19.104;2024-01-30T00:24:55;56.08;;;29.67;;
79204;SDS011;68632;47.512;19.104;2024-01-30T00:25:58;60.25;;;30.73;;
79204;SDS011;68632;47.512;19.104;2024-01-30T00:27:00;60.72;;;30.98;;
79204;SDS011;68632;47.512;19.104;2024-01-30T00:28:02;57.83;;;29.92;;
79204;SDS011;68632;47.512;19.104;2024-01-30T00:29:04;58.45;;;30.25;;
79204;SDS011;68632;47.512;19.104;2024-01-30T00:30:07;57.95;;;31.20;;
79204;SDS011;68632;47.512;19.104;2024-01-30T00:31:09;55.90;;;29.95;;
79204;SDS011;68632;47.512;19.104;2024-01-30T00:32:15;59.83;;;32.75;;
79204;SDS011;68632;47.512;19.104;2024-01-30T00:33:17;55.85;;;30.00;;
79204;SDS011;68632;47.512;19.104;2024-01-30T00:34:19;54.28;;;32.30;;
79204;SDS011;68632;47.512;19.104;2024-01-30T00:35:22;59.53;;;30.63;;
79204;SDS011;68632;47.512;19.104;2024-01-30T00:36:24;61.42;;;31.10;;
79204;SDS011;68632;47.512;19.104;2024-01-30T00:37:26;60.42;;;30.60;;
79204;SDS011;68632;47.512;19.104;2024-01-30T00:38:29;57.65;;;29.63;;
79204;SDS011;68632;47.512;19.104;2024-01-30T00:39:31;52.45;;;29.95;;
79204;SDS011;68632;47.512;19.104;2024-01-30T00:40:33;57.53;;;32.00;;
79204;SDS011;68632;47.512;19.104;2024-01-30T00:41:35;60.72;;;33.15;;
79204;SDS011;68632;47.512;19.104;2024-01-30T00:42:38;61.03;;;32.15;;
79204;SDS011;68632;47.512;19.104;2024-01-30T00:43:40;61.08;;;33.22;;
79204;SDS011;68632;47.512;19.104;2024-01-30T00:44:42;57.05;;;34.10;;
79204;SDS011;68632;47.512;19.104;2024-01-30T00:45:44;54.38;;;30.10;;
79204;SDS011;68632;47.512;19.104;2024-01-30T00:46:47;58.88;;;31.02;;
79204;SDS011;68632;47.512;19.104;2024-01-30T00:47:49;58.75;;;31.55;;
79204;SDS011;68632;47.512;19.104;2024-01-30T00:48:51;63.55;;;37.25;;
79204;SDS011;68632;47.512;19.104;2024-01-30T00:49:53;57.58;;;30.27;;
79204;SDS011;68632;47.512;19.104;2024-01-30T00:50:56;50.25;;;29.50;;
79204;SDS011;68632;47.512;19.104;2024-01-30T00:51:58;57.15;;;32.17;;
79204;SDS011;68632;47.512;19.104;2024-01-30T00:53:01;58.50;;;34.47;;
79204;SDS011;68632;47.512;19.104;2024-01-30T00:54:03;57.40;;;31.77;;
79204;SDS011;68632;47.512;19.104;2024-01-30T00:55:05;61.15;;;32.22;;
79204;SDS011;68632;47.512;19.104;2024-01-30T00:56:08;52.25;;;30.83;;
79204;SDS011;68632;47.512;19.104;2024-01-30T00:57:10;55.50;;;31.17;;
79204;SDS011;68632;47.512;19.104;2024-01-30T00:58:12;61.65;;;33.83;;
79204;SDS011;68632;47.512;19.104;2024-01-30T00:59:14;59.20;;;32.10;;
79204;SDS011;68632;47.512;19.104;2024-01-30T01:00:17;57.00;;;29.88;;
79204;SDS011;68632;47.512;19.104;2024-01-30T01:01:19;59.92;;;31.42;;
79204;SDS011;68632;47.512;19.104;2024-01-30T01:02:21;54.25;;;31.45;;
79204;SDS011;68632;47.512;19.104;2024-01-30T01:03:24;62.47;;;31.73;;
79204;SDS011;68632;47.512;19.104;2024-01-30T01:04:26;54.60;;;33.75;;
79204;SDS011;68632;47.512;19.104;2024-01-30T01:05:29;55.47;;;31.23;;
79204;SDS011;68632;47.512;19.104;2024-01-30T01:06:31;57.00;;;30.70;;
79204;SDS011;68632;47.512;19.104;2024-01-30T01:07:33;54.80;;;29.05;;
79204;SDS011;68632;47.512;19.104;2024-01-30T01:08:36;55.92;;;33.13;;
79204;SDS011;68632;47.512;19.104;2024-01-30T01:09:38;58.35;;;31.08;;
79204;SDS011;68632;47.512;19.104;2024-01-30T01:10:40;62.83;;;31.55;;
79204;SDS011;68632;47.512;19.104;2024-01-30T01:11:43;58.22;;;31.70;;
79204;SDS011;68632;47.512;19.104;2024-01-30T01:12:45;53.60;;;30.10;;
79204;SDS011;68632;47.512;19.104;2024-01-30T01:13:48;57.67;;;32.30;;
79204;SDS011;68632;47.512;19.104;2024-01-30T01:14:50;58.25;;;32.72;;
79204;SDS011;68632;47.512;19.104;2024-01-30T01:15:52;54.35;;;30.95;;
79204;SDS011;68632;47.512;19.104;2024-01-30T01:16:54;56.38;;;31.95;;
79204;SDS011;68632;47.512;19.104;2024-01-30T01:17:57;55.15;;;29.70;;
79204;SDS011;68632;47.512;19.104;2024-01-30T01:18:59;58.67;;;31.58;;
79204;SDS011;68632;47.512;19.104;2024-01-30T01:20:03;56.60;;;33.05;;
79204;SDS011;68632;47.512;19.104;2024-01-30T01:21:07;62.45;;;29.30;;
79204;SDS011;68632;47.512;19.104;2024-01-30T01:22:09;52.35;;;32.33;;
79204;SDS011;68632;47.512;19.104;2024-01-30T01:23:12;59.47;;;30.92;;
79204;SDS011;68632;47.512;19.104;2024-01-30T01:24:14;56.92;;;33.92;;
79204;SDS011;68632;47.512;19.104;2024-01-30T01:25:16;59.22;;;31.08;;
79204;SDS011;68632;47.512;19.104;2024-01-30T01:26:19;48.08;;;28.90;;
79204;SDS011;68632;47.512;19.104;2024-01-30T01:27:21;56.13;;;30.85;;
79204;SDS011;68632;47.512;19.104;2024-01-30T01:28:23;53.55;;;28.92;;
79204;SDS011;68632;47.512;19.104;2024-01-30T01:29:25;58.15;;;31.40;;
79204;SDS011;68632;47.512;19.104;2024-01-30T01:30:30;60.95;;;30.92;;
79204;SDS011;68632;47.512;19.104;2024-01-30T01:31:33;56.25;;;31.70;;
79204;SDS011;68632;47.512;19.104;2024-01-30T01:32:35;55.90;;;30.95;;
79204;SDS011;68632;47.512;19.104;2024-01-30T01:33:38;56.47;;;29.92;;
79204;SDS011;68632;47.512;19.104;2024-01-30T01:34:40;54.90;;;30.80;;
79204;SDS011;68632;47.512;19.104;2024-01-30T01:35:43;53.30;;;29.10;;
79204;SDS011;68632;47.512;19.104;2024-01-30T01:36:45;58.05;;;30.63;;
79204;SDS011;68632;47.512;19.104;2024-01-30T01:37:47;56.10;;;32.90;;
79204;SDS011;68632;47.512;19.104;2024-01-30T01:38:56;50.90;;;33.55;;
79204;SDS011;68632;47.512;19.104;2024-01-30T01:39:59;61.90;;;32.28;;
79204;SDS011;68632;47.512;19.104;2024-01-30T01:41:02;53.60;;;29.83;;
79204;SDS011;68632;47.512;19.104;2024-01-30T01:42:04;47.53;;;28.80;;
79204;SDS011;68632;47.512;19.104;2024-01-30T01:43:06;51.13;;;29.92;;
79204;SDS011;68632;47.512;19.104;2024-01-30T01:44:09;52.92;;;28.45;;
79204;SDS011;68632;47.512;19.104;2024-01-30T01:45:11;54.92;;;28.45;;
79204;SDS011;68632;47.512;19.104;2024-01-30T01:46:13;58.05;;;29.10;;
79204;SDS011;68632;47.512;19.104;2024-01-30T01:47:15;56.05;;;30.75;;
79204;SDS011;68632;47.512;19.104;2024-01-30T01:48:18;54.45;;;31.65;;
79204;SDS011;68632;47.512;19.104;2024-01-30T01:49:27;52.17;;;29.42;;
79204;SDS011;68632;47.512;19.104;2024-01-30T01:50:30;51.03;;;27.85;;
79204;SDS011;68632;47.512;19.104;2024-01-30T01:51:33;59.00;;;30.27;;
79204;SDS011;68632;47.512;19.104;2024-01-30T01:52:37;53.85;;;31.50;;
79204;SDS011;68632;47.512;19.104;2024-01-30T01:53:39;53.05;;;29.92;;
79204;SDS011;68632;47.512;19.104;2024-01-30T01:54:41;53.45;;;31.70;;
79204;SDS011;68632;47.512;19.104;2024-01-30T01:55:45;54.63;;;30.05;;
79204;SDS011;68632;47.512;19.104;2024-01-30T01:56:47;52.33;;;27.83;;
79204;SDS011;68632;47.512;19.104;2024-01-30T01:57:49;46.75;;;29.75;;
79204;SDS011;68632;47.512;19.104;2024-01-30T01:58:52;56.10;;;29.80;;
79204;SDS011;68632;47.512;19.104;2024-01-30T01:59:56;58.45;;;33.45;;
79204;SDS011;68632;47.512;19.104;2024-01-30T02:00:58;54.55;;;29.73;;
79204;SDS011;68632;47.512;19.104;2024-01-30T02:02:01;51.92;;;30.92;;
79204;SDS011;68632;47.512;19.104;2024-01-30T02:03:04;55.10;;;34.92;;
79204;SDS011;68632;47.512;19.104;2024-01-30T02:04:07;55.72;;;30.65;;
79204;SDS011;68632;47.512;19.104;2024-01-30T02:05:10;60.70;;;30.52;;
79204;SDS011;68632;47.512;19.104;2024-01-30T02:06:13;55.40;;;31.77;;
79204;SDS011;68632;47.512;19.104;2024-01-30T02:07:15;53.10;;;28.75;;
79204;SDS011;68632;47.512;19.104;2024-01-30T02:08:17;52.03;;;30.58;;
79204;SDS011;68632;47.512;19.104;2024-01-30T02:09:20;58.83;;;29.77;;
79204;SDS011;68632;47.512;19.104;2024-01-30T02:10:22;55.35;;;32.55;;
79204;SDS011;68632;47.512;19.104;2024-01-30T02:11:24;58.58;;;29.33;;
79204;SDS011;68632;47.512;19.104;2024-01-30T02:12:27;55.65;;;30.30;;
79204;SDS011;68632;47.512;19.104;2024-01-30T02:13:29;54.88;;;30.00;;
79204;SDS011;68632;47.512;19.104;2024-01-30T02:14:31;57.05;;;30.52;;
79204;SDS011;68632;47.512;19.104;2024-01-30T02:15:33;53.65;;;30.40;;
79204;SDS011;68632;47.512;19.104;2024-01-30T02:16:36;55.58;;;34.17;;
79204;SDS011;68632;47.512;19.104;2024-01-30T02:17:38;58.47;;;34.40;;
79204;SDS011;68632;47.512;19.104;2024-01-30T02:18:40;53.55;;;30.67;;
79204;SDS011;68632;47.512;19.104;2024-01-30T02:19:50;60.20;;;30.27;;
79204;SDS011;68632;47.512;19.104;2024-01-30T02:20:53;58.83;;;31.10;;
79204;SDS011;68632;47.512;19.104;2024-01-30T02:21:55;54.65;;;29.60;;
79204;SDS011;68632;47.512;19.104;2024-01-30T02:22:58;55.83;;;29.35;;
79204;SDS011;68632;47.512;19.104;2024-01-30T02:24:03;53.45;;;29.50;;
79204;SDS011;68632;47.512;19.104;2024-01-30T02:25:05;51.15;;;29.65;;
79204;SDS011;68632;47.512;19.104;2024-01-30T02:26:08;48.80;;;29.85;;
79204;SDS011;68632;47.512;19.104;2024-01-30T02:27:10;51.30;;;28.15;;
79204;SDS011;68632;47.512;19.104;2024-01-30T02:28:13;54.15;;;29.77;;
79204;SDS011;68632;47.512;19.104;2024-01-30T02:29:15;51.42;;;29.15;;
79204;SDS011;68632;47.512;19.104;2024-01-30T02:30:17;54.63;;;30.05;;
79204;SDS011;68632;47.512;19.104;2024-01-30T02:31:20;54.03;;;30.80;;
79204;SDS011;68632;47.512;19.104;2024-01-30T02:32:22;61.95;;;29.90;;
79204;SDS011;68632;47.512;19.104;2024-01-30T02:33:24;48.33;;;27.85;;
79204;SDS011;68632;47.512;19.104;2024-01-30T02:34:27;54.28;;;27.60;;
79204;SDS011;68632;47.512;19.104;2024-01-30T02:35:29;48.88;;;28.67;;
79204;SDS011;68632;47.512;19.104;2024-01-30T02:36:31;60.78;;;31.02;;
79204;SDS011;68632;47.512;19.104;2024-01-30T02:37:34;56.13;;;30.38;;
79204;SDS011;68632;47.512;19.104;2024-01-30T02:38:36;62.08;;;32.35;;
79204;SDS011;68632;47.512;19.104;2024-01-30T02:39:38;52.35;;;31.42;;
79204;SDS011;68632;47.512;19.104;2024-01-30T02:40:40;55.63;;;30.10;;
79204;SDS011;68632;47.512;19.104;2024-01-30T02:41:42;54.35;;;29.30;;
79204;SDS011;68632;47.512;19.104;2024-01-30T02:42:45;53.83;;;30.48;;
79204;SDS011;68632;47.512;19.104;2024-01-30T02:43:47;54.95;;;29.52;;
79204;SDS011;68632;47.512;19.104;2024-01-30T02:44:49;57.45;;;30.08;;
79204;SDS011;68632;47.512;19.104;2024-01-30T02:45:51;53.00;;;28.88;;
79204;SDS011;68632;47.512;19.104;2024-01-30T02:46:54;57.38;;;29.55;;
79204;SDS011;68632;47.512;19.104;2024-01-30T02:47:57;52.85;;;29.27;;
79204;SDS011;68632;47.512;19.104;2024-01-30T02:48:59;53.17;;;28.30;;
79204;SDS011;68632;47.512;19.104;2024-01-30T02:50:01;53.78;;;28.98;;
79204;SDS011;68632;47.512;19.104;2024-01-30T02:51:04;54.53;;;31.75;;
79204;SDS011;68632;47.512;19.104;2024-01-30T02:52:06;56.25;;;29.38;;
79204;SDS011;68632;47.512;19.104;2024-01-30T02:53:08;53.47;;;28.77;;
79204;SDS011;68632;47.512;19.104;2024-01-30T02:54:11;56.53;;;28.90;;
79204;SDS011;68632;47.512;19.104;2024-01-30T02:55:13;50.58;;;28.40;;
79204;SDS011;68632;47.512;19.104;2024-01-30T02:56:15;51.42;;;29.77;;
79204;SDS011;68632;47.512;19.104;2024-01-30T02:57:17;56.03;;;29.75;;
79204;SDS011;68632;47.512;19.104;2024-01-30T02:58:20;52.10;;;30.55;;
79204;SDS011;68632;47.512;19.104;2024-01-30T02:59:22;57.20;;;29.80;;
79204;SDS011;68632;47.512;19.104;2024-01-30T03:00:24;55.20;;;30.42;;
79204;SDS011;68632;47.512;19.104;2024-01-30T03:01:26;55.05;;;29.70;;
79204;SDS011;68632;47.512;19.104;2024-01-30T03:02:29;59.00;;;31.02;;
79204;SDS011;68632;47.512;19.104;2024-01-30T03:03:31;56.33;;;29.45;;
79204;SDS011;68632;47.512;19.104;2024-01-30T03:04:33;55.45;;;29.80;;
79204;SDS011;68632;47.512;19.104;2024-01-30T03:05:36;57.95;;;33.38;;
79204;SDS011;68632;47.512;19.104;2024-01-30T03:06:38;63.78;;;31.77;;
79204;SDS011;68632;47.512;19.104;2024-01-30T03:07:40;60.75;;;32.58;;
79204;SDS011;68632;47.512;19.104;2024-01-30T03:08:43;53.88;;;30.42;;
79204;SDS011;68632;47.512;19.104;2024-01-30T03:09:45;62.28;;;35.83;;
79204;SDS011;68632;47.512;19.104;2024-01-30T03:10:47;55.30;;;29.33;;
79204;SDS011;68632;47.512;19.104;2024-01-30T03:11:50;54.30;;;32.97;;
79204;SDS011;68632;47.512;19.104;2024-01-30T03:12:52;56.70;;;30.08;;
79204;SDS011;68632;47.512;19.104;2024-01-30T03:13:54;59.40;;;29.95;;
79204;SDS011;68632;47.512;19.104;2024-01-30T03:14:56;55.55;;;31.30;;
79204;SDS011;68632;47.512;19.104;2024-01-30T03:15:59;62.75;;;32.35;;
79204;SDS011;68632;47.512;19.104;2024-01-30T03:17:01;57.40;;;29.02;;
79204;SDS011;68632;47.512;19.104;2024-01-30T03:18:03;61.92;;;31.52;;
79204;SDS011;68632;47.512;19.104;2024-01-30T03:19:06;54.22;;;30.23;;
79204;SDS011;68632;47.512;19.104;2024-01-30T03:20:10;54.92;;;31.13;;
79204;SDS011;68632;47.512;19.104;2024-01-30T03:21:12;61.08;;;32.15;;
79204;SDS011;68632;47.512;19.104;2024-01-30T03:22:15;61.17;;;32.05;;
79204;SDS011;68632;47.512;19.104;2024-01-30T03:23:17;55.00;;;31.30;;
79204;SDS011;68632;47.512;19.104;2024-01-30T03:24:19;54.58;;;29.45;;
79204;SDS011;68632;47.512;19.104;2024-01-30T03:25:21;60.95;;;31.52;;
79204;SDS011;68632;47.512;19.104;2024-01-30T03:26:24;54.85;;;30.38;;
79204;SDS011;68632;47.512;19.104;2024-01-30T03:27:26;63.20;;;33.78;;
79204;SDS011;68632;47.512;19.104;2024-01-30T03:28:28;59.88;;;34.40;;
79204;SDS011;68632;47.512;19.104;2024-01-30T03:29:30;55.28;;;31.20;;
79204;SDS011;68632;47.512;19.104;2024-01-30T03:30:34;57.42;;;32.75;;
79204;SDS011;68632;47.512;19.104;2024-01-30T03:31:36;59.70;;;30.80;;
79204;SDS011;68632;47.512;19.104;2024-01-30T03:32:38;53.38;;;32.33;;
79204;SDS011;68632;47.512;19.104;2024-01-30T03:33:40;54.10;;;29.10;;
79204;SDS011;68632;47.512;19.104;2024-01-30T03:34:43;55.60;;;30.65;;
79204;SDS011;68632;47.512;19.104;2024-01-30T03:35:45;53.80;;;30.23;;
79204;SDS011;68632;47.512;19.104;2024-01-30T03:36:47;57.08;;;31.23;;
79204;SDS011;68632;47.512;19.104;2024-01-30T03:37:50;56.22;;;31.52;;
79204;SDS011;68632;47.512;19.104;2024-01-30T03:38:52;53.50;;;31.73;;
79204;SDS011;68632;47.512;19.104;2024-01-30T03:39:54;56.22;;;31.02;;
79204;SDS011;68632;47.512;19.104;2024-01-30T03:40:56;59.72;;;31.60;;
79204;SDS011;68632;47.512;19.104;2024-01-30T03:41:59;53.25;;;31.45;;
79204;SDS011;68632;47.512;19.104;2024-01-30T03:43:01;58.55;;;34.90;;
79204;SDS011;68632;47.512;19.104;2024-01-30T03:44:05;57.83;;;31.90;;
79204;SDS011;68632;47.512;19.104;2024-01-30T03:45:08;57.80;;;32.05;;
79204;SDS011;68632;47.512;19.104;2024-01-30T03:46:13;59.15;;;32.20;;
79204;SDS011;68632;47.512;19.104;2024-01-30T03:47:16;53.75;;;31.00;;
79204;SDS011;68632;47.512;19.104;2024-01-30T03:48:18;58.58;;;35.30;;
79204;SDS011;68632;47.512;19.104;2024-01-30T03:49:21;55.08;;;34.10;;
79204;SDS011;68632;47.512;19.104;2024-01-30T03:50:23;57.08;;;30.77;;
79204;SDS011;68632;47.512;19.104;2024-01-30T03:51:25;60.30;;;30.38;;
79204;SDS011;68632;47.512;19.104;2024-01-30T03:52:28;58.20;;;30.85;;
79204;SDS011;68632;47.512;19.104;2024-01-30T03:53:30;51.03;;;29.45;;
79204;SDS011;68632;47.512;19.104;2024-01-30T03:54:32;60.65;;;30.92;;
79204;SDS011;68632;47.512;19.104;2024-01-30T03:55:35;54.97;;;31.02;;
79204;SDS011;68632;47.512;19.104;2024-01-30T03:56:37;59.80;;;33.13;;
79204;SDS011;68632;47.512;19.104;2024-01-30T03:57:39;56.15;;;30.52;;
79204;SDS011;68632;47.512;19.104;2024-01-30T03:58:41;59.20;;;31.92;;
79204;SDS011;68632;47.512;19.104;2024-01-30T03:59:44;59.67;;;32.03;;
79204;SDS011;68632;47.512;19.104;2024-01-30T04:00:46;52.65;;;30.50;;
79204;SDS011;68632;47.512;19.104;2024-01-30T04:01:48;56.13;;;31.63;;
79204;SDS011;68632;47.512;19.104;2024-01-30T04:02:51;55.80;;;31.33;;
79204;SDS011;68632;47.512;19.104;2024-01-30T04:03:53;60.45;;;31.38;;
79204;SDS011;68632;47.512;19.104;2024-01-30T04:04:55;51.60;;;30.23;;
79204;SDS011;68632;47.512;19.104;2024-01-30T04:05:58;56.80;;;33.92;;
79204;SDS011;68632;47.512;19.104;2024-01-30T04:07:00;60.25;;;32.05;;
79204;SDS011;68632;47.512;19.104;2024-01-30T04:08:03;54.33;;;30.67;;
79204;SDS011;68632;47.512;19.104;2024-01-30T04:09:05;57.10;;;31.65;;
79204;SDS011;68632;47.512;19.104;2024-01-30T04:10:07;55.42;;;31.27;;
79204;SDS011;68632;47.512;19.104;2024-01-30T04:11:10;59.38;;;30.45;;
79204;SDS011;68632;47.512;19.104;2024-01-30T04:12:12;56.95;;;32.03;;
79204;SDS011;68632;47.512;19.104;2024-01-30T04:13:14;57.70;;;34.33;;
79204;SDS011;68632;47.512;19.104;2024-01-30T04:14:17;61.90;;;32.50;;
79204;SDS011;68632;47.512;19.104;2024-01-30T04:15:19;61.78;;;32.33;;
79204;SDS011;68632;47.512;19.104;2024-01-30T04:16:22;59.28;;;34.35;;
79204;SDS011;68632;47.512;19.104;2024-01-30T04:17:25;59.35;;;33.53;;
79204;SDS011;68632;47.512;19.104;2024-01-30T04:18:27;63.38;;;33.33;;
79204;SDS011;68632;47.512;19.104;2024-01-30T04:19:30;60.55;;;33.83;;
79204;SDS011;68632;47.512;19.104;2024-01-30T04:20:32;66.07;;;32.72;;
79204;SDS011;68632;47.512;19.104;2024-01-30T04:21:34;55.20;;;31.90;;
79204;SDS011;68632;47.512;19.104;2024-01-30T04:22:36;55.80;;;31.58;;
79204;SDS011;68632;47.512;19.104;2024-01-30T04:23:39;65.05;;;38.03;;
79204;SDS011;68632;47.512;19.104;2024-01-30T04:24:42;54.83;;;32.15;;
79204;SDS011;68632;47.512;19.104;2024-01-30T04:25:44;57.70;;;30.70;;
79204;SDS011;68632;47.512;19.104;2024-01-30T04:26:46;56.67;;;30.00;;
79204;SDS011;68632;47.512;19.104;2024-01-30T04:27:49;64.88;;;33.00;;
79204;SDS011;68632;47.512;19.104;2024-01-30T04:28:51;63.47;;;35.47;;
79204;SDS011;68632;47.512;19.104;2024-01-30T04:29:53;53.72;;;31.95;;
79204;SDS011;68632;47.512;19.104;2024-01-30T04:30:56;56.78;;;32.35;;
79204;SDS011;68632;47.512;19.104;2024-01-30T04:31:58;52.55;;;30.85;;
79204;SDS011;68632;47.512;19.104;2024-01-30T04:33:00;59.30;;;31.30;;
79204;SDS011;68632;47.512;19.104;2024-01-30T04:34:03;62.42;;;33.67;;
79204;SDS011;68632;47.512;19.104;2024-01-30T04:35:05;60.45;;;31.77;;
79204;SDS011;68632;47.512;19.104;2024-01-30T04:36:12;57.60;;;36.15;;
79204;SDS011;68632;47.512;19.104;2024-01-30T04:37:14;64.85;;;35.65;;
79204;SDS011;68632;47.512;19.104;2024-01-30T04:38:17;63.08;;;31.70;;
79204;SDS011;68632;47.512;19.104;2024-01-30T04:39:19;62.55;;;33.65;;
79204;SDS011;68632;47.512;19.104;2024-01-30T04:40:21;59.15;;;33.80;;
79204;SDS011;68632;47.512;19.104;2024-01-30T04:41:24;62.92;;;33.67;;
79204;SDS011;68632;47.512;19.104;2024-01-30T04:42:28;60.85;;;32.10;;
79204;SDS011;68632;47.512;19.104;2024-01-30T04:43:30;60.35;;;33.53;;
79204;SDS011;68632;47.512;19.104;2024-01-30T04:44:33;60.20;;;33.53;;
79204;SDS011;68632;47.512;19.104;2024-01-30T04:45:35;63.13;;;32.92;;
79204;SDS011;68632;47.512;19.104;2024-01-30T04:46:37;58.03;;;34.03;;
79204;SDS011;68632;47.512;19.104;2024-01-30T04:47:39;59.97;;;32.42;;
79204;SDS011;68632;47.512;19.104;2024-01-30T04:48:42;61.05;;;31.40;;
79204;SDS011;68632;47.512;19.104;2024-01-30T04:49:44;55.85;;;31.60;;
79204;SDS011;68632;47.512;19.104;2024-01-30T04:50:47;69.45;;;34.25;;
79204;SDS011;68632;47.512;19.104;2024-01-30T04:51:49;53.78;;;31.80;;
79204;SDS011;68632;47.512;19.104;2024-01-30T04:52:51;66.82;;;32.50;;
79204;SDS011;68632;47.512;19.104;2024-01-30T04:53:53;63.97;;;34.67;;
79204;SDS011;68632;47.512;19.104;2024-01-30T04:54:55;59.90;;;32.53;;
79204;SDS011;68632;47.512;19.104;2024-01-30T04:55:58;65.45;;;32.03;;
79204;SDS011;68632;47.512;19.104;2024-01-30T04:57:00;64.68;;;32.08;;
79204;SDS011;68632;47.512;19.104;2024-01-30T04:58:03;57.25;;;31.85;;
79204;SDS011;68632;47.512;19.104;2024-01-30T04:59:05;57.47;;;33.13;;
79204;SDS011;68632;47.512;19.104;2024-01-30T05:00:08;56.15;;;33.38;;
79204;SDS011;68632;47.512;19.104;2024-01-30T05:01:14;54.38;;;29.83;;
79204;SDS011;68632;47.512;19.104;2024-01-30T05:02:17;57.58;;;31.58;;
79204;SDS011;68632;47.512;19.104;2024-01-30T05:03:20;62.13;;;34.00;;
79204;SDS011;68632;47.512;19.104;2024-01-30T05:04:24;65.45;;;33.63;;
79204;SDS011;68632;47.512;19.104;2024-01-30T05:05:26;59.55;;;33.20;;
79204;SDS011;68632;47.512;19.104;2024-01-30T05:06:29;59.05;;;30.65;;
79204;SDS011;68632;47.512;19.104;2024-01-30T05:07:31;60.28;;;33.30;;
79204;SDS011;68632;47.512;19.104;2024-01-30T05:08:34;64.90;;;34.15;;
79204;SDS011;68632;47.512;19.104;2024-01-30T05:09:38;61.97;;;33.10;;
79204;SDS011;68632;47.512;19.104;2024-01-30T05:10:40;59.75;;;33.97;;
79204;SDS011;68632;47.512;19.104;2024-01-30T05:11:43;63.72;;;34.25;;
79204;SDS011;68632;47.512;19.104;2024-01-30T05:12:45;65.82;;;34.33;;
79204;SDS011;68632;47.512;19.104;2024-01-30T05:13:47;60.13;;;33.78;;
79204;SDS011;68632;47.512;19.104;2024-01-30T05:14:50;64.93;;;34.15;;
79204;SDS011;68632;47.512;19.104;2024-01-30T05:15:52;59.80;;;33.47;;
79204;SDS011;68632;47.512;19.104;2024-01-30T05:16:54;64.57;;;32.90;;
79204;SDS011;68632;47.512;19.104;2024-01-30T05:17:56;62.60;;;33.92;;
79204;SDS011;68632;47.512;19.104;2024-01-30T05:18:59;62.03;;;34.67;;
79204;SDS011;68632;47.512;19.104;2024-01-30T05:20:04;66.20;;;32.95;;
79204;SDS011;68632;47.512;19.104;2024-01-30T05:21:07;60.83;;;33.17;;
79204;SDS011;68632;47.512;19.104;2024-01-30T05:22:10;55.92;;;33.95;;
79204;SDS011;68632;47.512;19.104;2024-01-30T05:23:12;63.45;;;34.55;;
79204;SDS011;68632;47.512;19.104;2024-01-30T05:24:14;60.53;;;33.58;;
79204;SDS011;68632;47.512;19.104;2024-01-30T05:25:19;64.55;;;34.55;;
79204;SDS011;68632;47.512;19.104;2024-01-30T05:26:21;65.60;;;34.53;;
79204;SDS011;68632;47.512;19.104;2024-01-30T05:27:25;59.13;;;34.35;;
79204;SDS011;68632;47.512;19.104;2024-01-30T05:28:27;59.45;;;33.08;;
79204;SDS011;68632;47.512;19.104;2024-01-30T05:29:29;62.83;;;33.95;;
79204;SDS011;68632;47.512;19.104;2024-01-30T05:30:31;61.88;;;35.75;;
79204;SDS011;68632;47.512;19.104;2024-01-30T05:31:34;69.47;;;36.05;;
79204;SDS011;68632;47.512;19.104;2024-01-30T05:32:36;60.75;;;34.58;;
79204;SDS011;68632;47.512;19.104;2024-01-30T05:33:40;73.10;;;34.50;;
79204;SDS011;68632;47.512;19.104;2024-01-30T05:34:42;63.22;;;36.25;;
79204;SDS011;68632;47.512;19.104;2024-01-30T05:35:45;65.82;;;36.30;;
79204;SDS011;68632;47.512;19.104;2024-01-30T05:36:47;70.03;;;35.67;;
79204;SDS011;68632;47.512;19.104;2024-01-30T05:37:49;73.05;;;40.47;;
79204;SDS011;68632;47.512;19.104;2024-01-30T05:38:52;67.28;;;35.00;;
79204;SDS011;68632;47.512;19.104;2024-01-30T05:39:54;65.05;;;37.90;;
79204;SDS011;68632;47.512;19.104;2024-01-30T05:40:56;72.45;;;37.08;;
79204;SDS011;68632;47.512;19.104;2024-01-30T05:42:00;70.75;;;42.55;;
79204;SDS011;68632;47.512;19.104;2024-01-30T05:43:02;69.03;;;37.50;;
79204;SDS011;68632;47.512;19.104;2024-01-30T05:44:05;67.57;;;40.70;;
79204;SDS011;68632;47.512;19.104;2024-01-30T05:45:07;69.40;;;41.17;;
79204;SDS011;68632;47.512;19.104;2024-01-30T05:46:10;64.82;;;37.03;;
79204;SDS011;68632;47.512;19.104;2024-01-30T05:47:12;65.28;;;36.78;;
79204;SDS011;68632;47.512;19.104;2024-01-30T05:48:14;63.08;;;35.70;;
79204;SDS011;68632;47.512;19.104;2024-01-30T05:49:16;61.90;;;34.58;;
79204;SDS011;68632;47.512;19.104;2024-01-30T05:50:19;69.90;;;36.88;;
79204;SDS011;68632;47.512;19.104;2024-01-30T05:51:22;69.80;;;37.05;;
79204;SDS011;68632;47.512;19.104;2024-01-30T05:52:24;62.22;;;33.92;;
79204;SDS011;68632;47.512;19.104;2024-01-30T05:53:27;65.35;;;35.45;;
79204;SDS011;68632;47.512;19.104;2024-01-30T05:54:29;63.90;;;34.85;;
79204;SDS011;68632;47.512;19.104;2024-01-30T05:55:31;71.57;;;40.20;;
79204;SDS011;68632;47.512;19.104;2024-01-30T05:56:33;71.57;;;39.20;;
79204;SDS011;68632;47.512;19.104;2024-01-30T05:57:35;68.05;;;34.90;;
79204;SDS011;68632;47.512;19.104;2024-01-30T05:58:39;64.97;;;35.40;;
79204;SDS011;68632;47.512;19.104;2024-01-30T05:59:41;69.45;;;35.15;;